Forks, Washington
Current Conditions -  °F | °C
As of 11:09 AM on Tuesday 27 Jan 2015 (Local Time) from KUIL Reporting Station
Haze Haze  
Wind Chill: 47°   Ceiling: 800
Heat Index: 49°   Visibility: 5mi
Dew Point: 48°   Wind: 5mph
Humidity: 97%   Direction: 330°NNW
Pressure: 30.1"   Gusts: NA
Location:  47.95°N, 124.39°W
Report Text: KUIL 271909Z AUTO 33004KT 5SM BR BKN008 OVC022 09/09 A3010 RMK AO2 T00940089
Loading
Personal Weather Stations






























Interactive Weather Map New forecast layout! Learn more

10-Day Weather Forecast

Advertisements
Track Severe Weather on mobile